ROMMA est une association bénévole à but non lucratif. Votre soutien est indispensable : ADHERER à ROMMA ou FAIRE un DON

Lans-en-Vercors - (38, Isère)

Vercors (990 m)   Longitude: 5° 33' 59'' E   Latitude: 45° 6' 3'' N Station partenaire n°80
 

Détail journalier du     <<     >>

Température Precipitation Humidité Pression Vent Dir Rafale Dir. rafale Ensol.
Heure (°C) (mm) (%) (hPa) (km/h) (km/h) (min)
01:00 8.3094100902SSO0
02:00 8.1094100902SSO0
03:00 8.6095100903SSO0
04:00 8.409510091SSO5SSO0
05:00 8.2095100902SSO0
06:00 8.4095100905SSO0
07:00 8.6095100902SSO0
08:00 9.5095100905SSO0
09:00 10.809210092SSO6SSO0
10:00 13.807810085SSO11SSO20
11:00 17.106410071SSO10SSO60
12:00 16.906410073SSO10SSO30
13:00 18.306210076SSO16SSO30
14:00 18.807110079SO23SO60
15:00 18.1068100613SO37SO50
16:00 19.4061100616SO35SO60
17:00 18.4058100613SO31SO30
18:00 19.1055100514SO34SO20
19:00 17.1060100510SO29SO10
20:00 15.6065100511SO29SO20
21:00 14.6071100510SO27SO0
22:00 13.107910053SO15SO0
23:00 12.10.291100606SO0
minuit 12.1091100608SO0

Graphique du 06-06-2020

 

Serveur OMMA